createdAt,value
2022-10-01T00:03:54.797Z,99854.94
2022-10-01T00:08:55.522Z,99861.75
2022-10-01T00:13:58.681Z,99854.97
2022-10-01T00:19:00.419Z,99861.81
2022-10-01T00:24:03.121Z,99847.31
2022-10-01T00:29:07.685Z,99860.09
2022-10-01T00:34:09.126Z,99849.03
2022-10-01T00:39:11.566Z,99850.75
2022-10-01T00:44:35.337Z,99851.59
2022-10-01T00:49:39.898Z,99844.81
2022-10-01T00:54:44.994Z,99842.28
2022-10-01T00:59:48.110Z,99843.13
2022-10-01T01:04:49.235Z,99834.63
2022-10-01T01:09:52.420Z,99827.81
2022-10-01T01:15:07.534Z,99830.38
2022-10-01T01:20:43.122Z,99833.78
2022-10-01T01:25:49.962Z,99824.44
2022-10-01T01:30:57.958Z,99811.66
2022-10-01T01:36:04.507Z,99804.88
2022-10-01T01:41:07.500Z,99802.28
2022-10-01T01:46:12.346Z,99793.81
2022-10-01T01:51:18.870Z,99793.81
2022-10-01T01:56:19.646Z,99790.44
2022-10-01T02:01:37.821Z,99790.41
2022-10-01T02:06:57.695Z,99798.91
2022-10-01T02:12:08.508Z,99787.06
2022-10-01T02:17:17.595Z,99789.56
2022-10-01T02:22:24.122Z,99787.06
2022-10-01T02:27:30.049Z,99771.75
2022-10-01T02:32:33.062Z,99780.25
2022-10-01T02:37:36.645Z,99778.56
2022-10-01T02:42:38.855Z,99765.00
2022-10-01T02:47:45.855Z,99767.53
2022-10-01T02:52:53.852Z,99770.09
2022-10-01T02:57:54.700Z,99765.00
2022-10-01T03:02:57.071Z,99767.56
2022-10-01T03:07:57.954Z,99758.22
2022-10-01T03:13:01.624Z,99756.50
2022-10-01T03:18:03.753Z,99757.34
2022-10-01T03:23:04.527Z,99744.59
2022-10-01T03:28:05.338Z,99742.06
2022-10-01T03:33:07.446Z,99750.56
2022-10-01T03:38:08.300Z,99747.19
2022-10-01T03:43:09.041Z,99751.41
2022-10-01T03:48:11.113Z,99754.81
2022-10-01T03:53:12.433Z,99762.50
2022-10-01T03:58:13.266Z,99750.59
2022-10-01T04:03:16.262Z,99748.88
2022-10-01T04:08:20.818Z,99740.38
2022-10-01T04:13:24.307Z,99731.00
2022-10-01T04:18:26.435Z,99719.97
2022-10-01T04:23:28.044Z,99714.84
2022-10-01T04:28:29.375Z,99721.66
2022-10-01T04:33:31.465Z,99714.84
2022-10-01T04:38:32.595Z,99716.53
2022-10-01T04:43:33.450Z,99718.25
2022-10-01T04:48:35.564Z,99713.16
2022-10-01T04:53:36.452Z,99721.66
2022-10-01T04:58:37.782Z,99713.16
2022-10-01T05:03:39.941Z,99705.47
2022-10-01T05:08:40.759Z,99700.38
2022-10-01T05:13:41.732Z,99699.50
2022-10-01T05:18:43.974Z,99707.97
2022-10-01T05:23:44.837Z,99706.19
2022-10-01T05:28:45.697Z,99704.41
2022-10-01T05:33:48.278Z,99702.66
2022-10-01T05:38:49.569Z,99698.38
2022-10-01T05:43:51.394Z,99685.53
2022-10-01T05:48:53.653Z,99692.22
2022-10-01T05:53:55.728Z,99680.22
2022-10-01T05:58:56.678Z,99680.09
2022-10-01T06:03:58.935Z,99671.50
2022-10-01T06:09:00.486Z,99672.31
2022-10-01T06:14:01.332Z,99658.53
2022-10-01T06:19:03.766Z,99650.66
2022-10-01T06:24:05.254Z,99641.16
2022-10-01T06:29:06.043Z,99636.66
2022-10-01T06:34:08.232Z,99632.94
2022-10-01T06:39:08.994Z,99630.00
2022-10-01T06:44:09.840Z,99620.97
2022-10-01T06:49:12.005Z,99625.72
2022-10-01T06:54:12.986Z,99620.44
2022-10-01T06:59:13.768Z,99608.53
2022-10-01T07:04:15.879Z,99598.63
2022-10-01T07:09:16.811Z,99593.78
2022-10-01T07:14:17.652Z,99590.31
2022-10-01T07:19:19.755Z,99576.41
2022-10-01T07:24:20.524Z,99572.03
2022-10-01T07:29:21.264Z,99562.50
2022-10-01T07:34:24.858Z,99567.50
2022-10-01T07:39:25.962Z,99568.28
2022-10-01T07:44:27.815Z,99566.31
2022-10-01T07:49:29.906Z,99564.91
2022-10-01T07:54:30.759Z,99557.66
2022-10-01T07:59:31.675Z,99560.47
2022-10-01T08:04:52.836Z,99544.91
2022-10-01T08:09:53.587Z,99539.09
2022-10-01T08:14:54.389Z,99527.81
2022-10-01T08:19:56.602Z,99527.44
2022-10-01T08:24:57.518Z,99530.38
2022-10-01T08:29:58.398Z,99522.44
2022-10-01T08:35:01.293Z,99518.19
2022-10-01T08:40:02.564Z,99506.06
2022-10-01T08:45:11.322Z,99497.38
2022-10-01T08:50:24.373Z,99498.09
2022-10-01T08:55:28.111Z,99494.31
2022-10-01T09:00:31.979Z,99489.16
2022-10-01T09:05:42.104Z,99481.31
2022-10-01T09:10:46.564Z,99466.03
2022-10-01T09:15:54.717Z,99456.47
2022-10-01T09:20:59.663Z,99455.44
2022-10-01T09:26:01.267Z,99452.84
2022-10-01T09:31:13.092Z,99456.66
2022-10-01T09:36:24.228Z,99443.03
2022-10-01T09:41:24.990Z,99442.53
2022-10-01T09:46:26.691Z,99435.91
2022-10-01T09:51:39.995Z,99410.34
2022-10-01T09:56:47.957Z,99405.41
2022-10-01T10:01:52.762Z,99396.56
2022-10-01T10:07:01.903Z,99402.41
2022-10-01T10:12:03.627Z,99401.25
2022-10-01T10:17:07.984Z,99390.19
2022-10-01T10:22:23.257Z,99377.41
2022-10-01T10:27:28.590Z,99376.28
2022-10-01T10:32:29.880Z,99378.75
2022-10-01T10:37:37.368Z,99386.59
2022-10-01T10:42:38.809Z,99375.72
2022-10-01T10:47:46.336Z,99385.69
2022-10-01T10:52:48.481Z,99377.69
2022-10-01T10:57:49.445Z,99383.00
2022-10-01T11:02:55.618Z,99380.59
2022-10-01T11:08:01.603Z,99370.19
2022-10-01T11:13:24.733Z,99365.66
2022-10-01T11:18:52.833Z,99364.53
2022-10-01T11:24:13.113Z,99357.34
2022-10-01T11:29:28.191Z,99359.47
2022-10-01T11:34:56.489Z,99354.56
2022-10-01T11:40:04.900Z,99354.78
2022-10-01T11:45:15.214Z,99356.63
2022-10-01T11:50:19.636Z,99358.25
2022-10-01T11:55:43.309Z,99366.00
2022-10-01T12:00:53.917Z,99360.75
2022-10-01T12:05:58.949Z,99363.53
2022-10-01T12:11:07.782Z,99367.09
2022-10-01T12:16:17.031Z,99373.16
2022-10-01T12:21:23.256Z,99364.81
2022-10-01T12:26:36.030Z,99355.75
2022-10-01T12:31:44.326Z,99359.13
2022-10-01T12:36:57.117Z,99346.41
2022-10-01T12:42:15.297Z,99330.09
2022-10-01T12:47:35.189Z,99328.34
2022-10-01T12:52:48.787Z,99321.22
2022-10-01T12:58:01.246Z,99333.75
2022-10-01T13:03:36.888Z,99341.28
2022-10-01T13:08:50.147Z,99332.34
2022-10-01T13:13:54.519Z,99337.47
2022-10-01T13:19:03.221Z,99332.59
2022-10-01T13:24:13.840Z,99333.69
2022-10-01T13:29:31.459Z,99325.97
2022-10-01T13:34:37.809Z,99328.63
2022-10-01T13:39:42.026Z,99341.56
2022-10-01T13:44:44.239Z,99328.06
2022-10-01T13:49:53.486Z,99326.97
2022-10-01T13:54:57.148Z,99325.03
2022-10-01T14:00:07.015Z,99319.91
2022-10-01T14:05:29.163Z,99327.75
2022-10-01T14:10:35.980Z,99311.31
2022-10-01T14:16:00.116Z,99317.91
2022-10-01T14:21:10.522Z,99324.72
2022-10-01T14:26:20.432Z,99318.28
2022-10-01T14:31:32.704Z,99313.41
2022-10-01T14:36:37.500Z,99307.25
2022-10-01T14:41:38.448Z,99299.38
2022-10-01T14:46:40.691Z,99307.66
2022-10-01T14:51:51.501Z,99308.25
2022-10-01T14:56:53.091Z,99295.13
2022-10-01T15:02:02.114Z,99301.31
2022-10-01T15:07:12.851Z,99292.44
2022-10-01T15:12:15.009Z,99295.94
2022-10-01T15:17:23.351Z,99297.63
2022-10-01T15:22:27.517Z,99304.63
2022-10-01T15:27:28.940Z,99303.22
2022-10-01T15:32:31.294Z,99309.00
2022-10-01T15:37:35.291Z,99310.19
2022-10-01T15:42:37.433Z,99307.44
2022-10-01T15:47:40.590Z,99307.09
2022-10-01T15:52:58.143Z,99312.88
2022-10-01T15:58:06.018Z,99317.22
2022-10-01T16:03:20.033Z,99313.53
2022-10-01T16:08:24.126Z,99328.44
2022-10-01T16:13:36.348Z,99324.06
2022-10-01T16:18:38.535Z,99323.59
2022-10-01T16:23:43.328Z,99324.22
2022-10-01T16:28:44.295Z,99323.25
2022-10-01T16:33:47.049Z,99341.34
2022-10-01T16:38:48.310Z,99335.50
2022-10-01T16:43:49.718Z,99340.13
2022-10-01T16:48:52.434Z,99330.59
2022-10-01T16:53:55.427Z,99329.50
2022-10-01T16:58:56.178Z,99340.50
2022-10-01T17:04:06.023Z,99349.09
2022-10-01T17:09:07.021Z,99353.03
2022-10-01T17:14:08.820Z,99357.94
2022-10-01T17:19:12.563Z,99365.38
2022-10-01T17:24:13.772Z,99375.06
2022-10-01T17:29:14.556Z,99377.31
2022-10-01T17:34:17.593Z,99386.72
2022-10-01T17:39:18.388Z,99389.25
2022-10-01T17:44:19.181Z,99394.16
2022-10-01T17:49:21.555Z,99401.00
2022-10-01T17:54:22.327Z,99393.13
2022-10-01T17:59:25.520Z,99399.03
2022-10-01T18:04:30.170Z,99407.63
2022-10-01T18:09:30.928Z,99415.69
2022-10-01T18:14:31.936Z,99420.72
2022-10-01T18:24:55.303Z,99432.13
2022-10-01T18:29:56.176Z,99435.44
2022-10-01T18:34:59.843Z,99429.56
2022-10-01T18:40:06.720Z,99439.63
2022-10-01T18:45:15.991Z,99439.25
2022-10-01T18:50:25.719Z,99444.59
2022-10-01T18:55:35.334Z,99436.88
2022-10-01T19:00:46.099Z,99451.72
2022-10-01T19:06:19.475Z,99462.63
2022-10-01T19:11:32.408Z,99462.47
2022-10-01T19:16:47.048Z,99473.63
2022-10-01T19:22:00.330Z,99471.16
2022-10-01T19:27:13.575Z,99481.13
2022-10-01T19:32:18.547Z,99477.06
2022-10-01T19:37:29.025Z,99482.56
2022-10-01T19:42:35.400Z,99489.47
2022-10-01T19:47:41.248Z,99490.97
2022-10-01T19:52:45.734Z,99504.69
2022-10-01T19:57:48.037Z,99519.56
2022-10-01T20:02:54.529Z,99531.78
2022-10-01T20:08:01.534Z,99536.94
2022-10-01T20:13:17.582Z,99539.78
2022-10-01T20:18:28.222Z,99548.47
2022-10-01T20:23:43.213Z,99563.91
2022-10-01T20:28:53.092Z,99581.03
2022-10-01T20:34:03.694Z,99585.22
2022-10-01T20:39:13.377Z,99588.03
2022-10-01T20:44:16.826Z,99606.16
2022-10-01T20:49:29.764Z,99619.66
2022-10-01T20:54:36.419Z,99620.63
2022-10-01T20:59:42.146Z,99625.06
2022-10-01T21:04:52.067Z,99630.47
2022-10-01T21:09:57.720Z,99639.97
2022-10-01T21:14:58.828Z,99649.50
2022-10-01T21:20:11.512Z,99668.03
2022-10-01T21:25:23.237Z,99676.94
2022-10-01T21:30:24.322Z,99680.22
2022-10-01T21:35:32.318Z,99684.63
2022-10-01T21:40:50.944Z,99689.63
2022-10-01T21:46:00.651Z,99711.00
2022-10-01T21:51:09.931Z,99710.84
2022-10-01T21:56:39.433Z,99720.84
2022-10-01T22:01:55.757Z,99735.59
2022-10-01T22:07:03.133Z,99736.59
2022-10-01T22:12:07.774Z,99738.44
2022-10-01T22:17:14.813Z,99750.41
2022-10-01T22:22:21.912Z,99759.78
2022-10-01T22:27:27.729Z,99765.78
2022-10-01T22:32:34.188Z,99771.09
2022-10-01T22:37:39.020Z,99771.28
2022-10-01T22:42:45.352Z,99792.63
2022-10-01T22:48:11.933Z,99802.94
2022-10-01T22:53:32.189Z,99815.00
2022-10-01T22:58:59.886Z,99820.16
2022-10-01T23:04:11.792Z,99821.97
2022-10-01T23:09:19.246Z,99834.81
2022-10-01T23:14:39.386Z,99835.66
2022-10-01T23:19:48.134Z,99848.78
2022-10-01T23:25:05.021Z,99849.44
2022-10-01T23:30:11.875Z,99863.38
2022-10-01T23:35:18.318Z,99870.53
2022-10-01T23:40:22.296Z,99870.47
2022-10-01T23:45:29.211Z,99879.22
2022-10-01T23:50:36.062Z,99888.09
2022-10-01T23:56:04.035Z,99900.03
